sensor_id;sensor_type;location;lat;lon;timestamp;pressure;altitude;pressure_sealevel;temperature;humidity
80410;BME280;69746;45.596;10.154;2023-11-18T00:02:17;99801.00;;;16.94;56.63
80410;BME280;69746;45.596;10.154;2023-11-18T00:04:43;99810.34;;;16.98;56.33
80410;BME280;69746;45.596;10.154;2023-11-18T00:07:09;99814.22;;;16.97;56.43
80410;BME280;69746;45.596;10.154;2023-11-18T00:09:35;99829.63;;;16.98;56.70
80410;BME280;69746;45.596;10.154;2023-11-18T00:12:03;99841.47;;;16.98;56.50
80410;BME280;69746;45.596;10.154;2023-11-18T00:14:29;99847.56;;;16.95;56.74
80410;BME280;69746;45.596;10.154;2023-11-18T00:16:55;99857.19;;;16.98;56.62
80410;BME280;69746;45.596;10.154;2023-11-18T00:19:21;99852.78;;;16.97;56.74
80410;BME280;69746;45.596;10.154;2023-11-18T00:21:47;99861.88;;;16.97;56.44
80410;BME280;69746;45.596;10.154;2023-11-18T00:24:13;99857.19;;;16.98;56.47
80410;BME280;69746;45.596;10.154;2023-11-18T00:26:40;99867.38;;;16.97;56.34
80410;BME280;69746;45.596;10.154;2023-11-18T00:29:05;99872.91;;;16.97;56.48
80410;BME280;69746;45.596;10.154;2023-11-18T00:31:31;99869.31;;;16.97;56.81
80410;BME280;69746;45.596;10.154;2023-11-18T00:33:57;99870.97;;;16.98;56.48
80410;BME280;69746;45.596;10.154;2023-11-18T00:36:23;99870.16;;;16.97;56.45
80410;BME280;69746;45.596;10.154;2023-11-18T00:38:49;99878.41;;;16.97;56.71
80410;BME280;69746;45.596;10.154;2023-11-18T00:41:15;99875.66;;;16.97;56.67
80410;BME280;69746;45.596;10.154;2023-11-18T00:43:42;99880.34;;;16.97;56.45
80410;BME280;69746;45.596;10.154;2023-11-18T00:46:08;99881.16;;;16.97;56.37
80410;BME280;69746;45.596;10.154;2023-11-18T00:48:35;99880.34;;;16.97;56.47
80410;BME280;69746;45.596;10.154;2023-11-18T00:51:01;99872.34;;;16.95;56.68
80410;BME280;69746;45.596;10.154;2023-11-18T00:53:27;99868.50;;;16.96;56.65
80410;BME280;69746;45.596;10.154;2023-11-18T00:55:53;99874.00;;;16.96;56.43
80410;BME280;69746;45.596;10.154;2023-11-18T00:58:19;99866.56;;;16.97;56.32
80410;BME280;69746;45.596;10.154;2023-11-18T01:00:45;99862.97;;;16.96;56.58
80410;BME280;69746;45.596;10.154;2023-11-18T01:03:11;99856.91;;;16.94;56.60
80410;BME280;69746;45.596;10.154;2023-11-18T01:05:37;99862.97;;;16.96;56.31
80410;BME280;69746;45.596;10.154;2023-11-18T01:08:04;99880.63;;;16.95;56.55
80410;BME280;69746;45.596;10.154;2023-11-18T01:10:30;99874.28;;;16.95;56.35
80410;BME280;69746;45.596;10.154;2023-11-18T01:12:56;99883.66;;;16.94;56.53
80410;BME280;69746;45.596;10.154;2023-11-18T01:15:23;99885.31;;;16.95;56.39
80410;BME280;69746;45.596;10.154;2023-11-18T01:17:49;99877.03;;;16.95;56.45
80410;BME280;69746;45.596;10.154;2023-11-18T01:20:15;99891.91;;;16.94;56.66
80410;BME280;69746;45.596;10.154;2023-11-18T01:22:47;99895.22;;;16.96;56.55
80410;BME280;69746;45.596;10.154;2023-11-18T01:25:15;99886.41;;;16.94;56.62
80410;BME280;69746;45.596;10.154;2023-11-18T01:27:43;99879.78;;;16.95;56.60
80410;BME280;69746;45.596;10.154;2023-11-18T01:30:13;99874.56;;;16.93;56.68
80410;BME280;69746;45.596;10.154;2023-11-18T01:32:40;99876.22;;;16.94;56.53
80410;BME280;69746;45.596;10.154;2023-11-18T01:35:06;99881.72;;;16.94;56.31
80410;BME280;69746;45.596;10.154;2023-11-18T01:37:33;99886.41;;;16.94;56.62
80410;BME280;69746;45.596;10.154;2023-11-18T01:39:59;99907.63;;;16.93;56.42
80410;BME280;69746;45.596;10.154;2023-11-18T01:42:34;99919.47;;;16.94;56.31
80410;BME280;69746;45.596;10.154;2023-11-18T01:45:00;99924.16;;;16.93;56.26
80410;BME280;69746;45.596;10.154;2023-11-18T01:47:32;99926.91;;;16.93;56.33
80410;BME280;69746;45.596;10.154;2023-11-18T01:49:59;99938.75;;;16.94;56.25
80410;BME280;69746;45.596;10.154;2023-11-18T01:52:27;99932.41;;;16.93;56.69
80410;BME280;69746;45.596;10.154;2023-11-18T01:54:56;99937.66;;;16.95;56.22
80410;BME280;69746;45.596;10.154;2023-11-18T01:57:22;99937.94;;;16.93;56.47
80410;BME280;69746;45.596;10.154;2023-11-18T01:59:48;99945.91;;;16.95;56.51
80410;BME280;69746;45.596;10.154;2023-11-18T02:02:14;99937.94;;;16.93;56.50
80410;BME280;69746;45.596;10.154;2023-11-18T02:04:43;99936.00;;;16.94;56.58
80410;BME280;69746;45.596;10.154;2023-11-18T02:07:10;99929.66;;;16.93;56.45
80410;BME280;69746;45.596;10.154;2023-11-18T02:09:38;99928.84;;;16.93;56.48
80410;BME280;69746;45.596;10.154;2023-11-18T02:14:43;99936.25;;;16.92;56.25
80410;BME280;69746;45.596;10.154;2023-11-18T02:17:14;99938.75;;;16.94;56.54
80410;BME280;69746;45.596;10.154;2023-11-18T02:19:40;99940.94;;;16.92;56.20
80410;BME280;69746;45.596;10.154;2023-11-18T02:22:07;99947.53;;;16.91;56.56
80410;BME280;69746;45.596;10.154;2023-11-18T02:24:34;99949.19;;;16.92;56.29
80410;BME280;69746;45.596;10.154;2023-11-18T02:27:04;99960.22;;;16.92;56.18
80410;BME280;69746;45.596;10.154;2023-11-18T02:29:38;99961.03;;;16.92;56.47
80410;BME280;69746;45.596;10.154;2023-11-18T02:32:23;99964.66;;;16.93;56.56
80410;BME280;69746;45.596;10.154;2023-11-18T02:35:02;99955.81;;;16.91;56.58
80410;BME280;69746;45.596;10.154;2023-11-18T02:37:31;99949.19;;;16.92;56.23
80410;BME280;69746;45.596;10.154;2023-11-18T02:40:04;99952.22;;;16.90;56.67
80410;BME280;69746;45.596;10.154;2023-11-18T02:42:38;99959.66;;;16.90;56.45
80410;BME280;69746;45.596;10.154;2023-11-18T02:45:07;99968.47;;;16.92;56.57
80410;BME280;69746;45.596;10.154;2023-11-18T02:47:36;99962.16;;;16.91;56.58
80410;BME280;69746;45.596;10.154;2023-11-18T02:50:02;99966.84;;;16.91;56.27
80410;BME280;69746;45.596;10.154;2023-11-18T02:52:31;99966.00;;;16.90;56.23
80410;BME280;69746;45.596;10.154;2023-11-18T02:54:58;99977.03;;;16.90;56.09
80410;BME280;69746;45.596;10.154;2023-11-18T02:57:25;99980.59;;;16.91;56.46
80410;BME280;69746;45.596;10.154;2023-11-18T02:59:51;99972.88;;;16.88;56.10
80410;BME280;69746;45.596;10.154;2023-11-18T03:02:20;99961.31;;;16.91;56.24
80410;BME280;69746;45.596;10.154;2023-11-18T03:04:46;99960.50;;;16.90;56.17
80410;BME280;69746;45.596;10.154;2023-11-18T03:07:12;99977.03;;;16.90;56.25
80410;BME280;69746;45.596;10.154;2023-11-18T03:09:38;99974.28;;;16.90;56.17
80410;BME280;69746;45.596;10.154;2023-11-18T03:12:06;99989.97;;;16.90;56.29
80410;BME280;69746;45.596;10.154;2023-11-18T03:14:33;99997.13;;;16.91;56.14
80410;BME280;69746;45.596;10.154;2023-11-18T03:17:01;99994.09;;;16.92;56.14
80410;BME280;69746;45.596;10.154;2023-11-18T03:19:27;99988.03;;;16.90;56.34
80410;BME280;69746;45.596;10.154;2023-11-18T03:21:55;99995.47;;;16.90;56.32
80410;BME280;69746;45.596;10.154;2023-11-18T03:24:21;99990.81;;;16.90;56.33
80410;BME280;69746;45.596;10.154;2023-11-18T03:26:47;99987.22;;;16.90;56.31
80410;BME280;69746;45.596;10.154;2023-11-18T03:29:13;99987.78;;;16.92;56.43
80410;BME280;69746;45.596;10.154;2023-11-18T03:31:39;99981.72;;;16.90;56.25
80410;BME280;69746;45.596;10.154;2023-11-18T03:34:05;99977.03;;;16.90;56.16
80410;BME280;69746;45.596;10.154;2023-11-18T03:36:31;99977.03;;;16.90;56.36
80410;BME280;69746;45.596;10.154;2023-11-18T03:38:57;99975.38;;;16.89;56.24
80410;BME280;69746;45.596;10.154;2023-11-18T03:41:23;99989.97;;;16.90;56.08
80410;BME280;69746;45.596;10.154;2023-11-18T03:43:49;99999.06;;;16.90;56.54
80410;BME280;69746;45.596;10.154;2023-11-18T03:46:15;99991.91;;;16.89;56.24
80410;BME280;69746;45.596;10.154;2023-11-18T03:48:41;100003.75;;;16.90;56.36
80410;BME280;69746;45.596;10.154;2023-11-18T03:51:09;99994.66;;;16.89;56.42
80410;BME280;69746;45.596;10.154;2023-11-18T03:53:38;100009.25;;;16.90;56.50
80410;BME280;69746;45.596;10.154;2023-11-18T03:56:05;100011.19;;;16.89;56.17
80410;BME280;69746;45.596;10.154;2023-11-18T03:58:31;100012.00;;;16.90;56.37
80410;BME280;69746;45.596;10.154;2023-11-18T04:00:58;100015.88;;;16.89;56.08
80410;BME280;69746;45.596;10.154;2023-11-18T04:03:25;100008.44;;;16.89;56.32
80410;BME280;69746;45.596;10.154;2023-11-18T04:05:51;99999.34;;;16.89;56.20
80410;BME280;69746;45.596;10.154;2023-11-18T04:08:17;99996.59;;;16.89;56.14
80410;BME280;69746;45.596;10.154;2023-11-18T04:10:43;99999.34;;;16.89;56.36
80410;BME280;69746;45.596;10.154;2023-11-18T04:13:09;100006.50;;;16.90;56.28
80410;BME280;69746;45.596;10.154;2023-11-18T04:15:35;99998.50;;;16.88;56.09
80410;BME280;69746;45.596;10.154;2023-11-18T04:18:01;100002.38;;;16.87;56.12
80410;BME280;69746;45.596;10.154;2023-11-18T04:20:27;100006.78;;;16.88;56.25
80410;BME280;69746;45.596;10.154;2023-11-18T04:22:53;100013.38;;;16.87;56.07
80410;BME280;69746;45.596;10.154;2023-11-18T04:25:19;100014.22;;;16.88;56.02
80410;BME280;69746;45.596;10.154;2023-11-18T04:27:46;100024.69;;;16.86;56.26
80410;BME280;69746;45.596;10.154;2023-11-18T04:30:13;100032.69;;;16.87;56.37
80410;BME280;69746;45.596;10.154;2023-11-18T04:32:39;100040.94;;;16.87;56.06
80410;BME280;69746;45.596;10.154;2023-11-18T04:35:08;100026.06;;;16.88;56.37
80410;BME280;69746;45.596;10.154;2023-11-18T04:37:34;100031.56;;;16.88;56.05
80410;BME280;69746;45.596;10.154;2023-11-18T04:40:01;100032.69;;;16.87;55.99
80410;BME280;69746;45.596;10.154;2023-11-18T04:42:28;100030.75;;;16.88;56.09
80410;BME280;69746;45.596;10.154;2023-11-18T04:44:56;100032.69;;;16.87;56.37
80410;BME280;69746;45.596;10.154;2023-11-18T04:47:22;100032.69;;;16.87;56.18
80410;BME280;69746;45.596;10.154;2023-11-18T04:49:47;100034.59;;;16.87;55.97
80410;BME280;69746;45.596;10.154;2023-11-18T04:52:13;100042.88;;;16.87;56.13
80410;BME280;69746;45.596;10.154;2023-11-18T04:54:42;100040.94;;;16.87;56.29
80410;BME280;69746;45.596;10.154;2023-11-18T04:57:09;100035.44;;;16.87;56.22
80410;BME280;69746;45.596;10.154;2023-11-18T04:59:36;100037.63;;;16.85;56.09
80410;BME280;69746;45.596;10.154;2023-11-18T05:02:02;100043.16;;;16.85;56.33
80410;BME280;69746;45.596;10.154;2023-11-18T05:04:28;100039.28;;;16.86;56.14
80410;BME280;69746;45.596;10.154;2023-11-18T05:06:54;100042.88;;;16.87;56.07
80410;BME280;69746;45.596;10.154;2023-11-18T05:09:20;100039.28;;;16.86;55.87
80410;BME280;69746;45.596;10.154;2023-11-18T05:11:46;100039.56;;;16.85;55.99
80410;BME280;69746;45.596;10.154;2023-11-18T05:14:12;100043.16;;;16.85;55.96
80410;BME280;69746;45.596;10.154;2023-11-18T05:16:38;100054.16;;;16.85;56.06
80410;BME280;69746;45.596;10.154;2023-11-18T05:19:04;100052.25;;;16.86;56.34
80410;BME280;69746;45.596;10.154;2023-11-18T05:21:31;100058.84;;;16.85;56.09
80410;BME280;69746;45.596;10.154;2023-11-18T05:23:59;100066.84;;;16.86;55.95
80410;BME280;69746;45.596;10.154;2023-11-18T05:26:25;100058.84;;;16.85;56.00
80410;BME280;69746;45.596;10.154;2023-11-18T05:28:52;100056.09;;;16.85;56.24
80410;BME280;69746;45.596;10.154;2023-11-18T05:31:20;100061.59;;;16.85;56.02
80410;BME280;69746;45.596;10.154;2023-11-18T05:33:48;100060.50;;;16.86;56.12
80410;BME280;69746;45.596;10.154;2023-11-18T05:36:17;100057.75;;;16.86;56.15
80410;BME280;69746;45.596;10.154;2023-11-18T05:38:52;100069.88;;;16.85;56.10
80410;BME280;69746;45.596;10.154;2023-11-18T05:41:20;100067.13;;;16.85;56.06
80410;BME280;69746;45.596;10.154;2023-11-18T05:43:54;100063.53;;;16.84;56.17
80410;BME280;69746;45.596;10.154;2023-11-18T05:46:26;100060.50;;;16.86;55.96
80410;BME280;69746;45.596;10.154;2023-11-18T05:48:55;100067.13;;;16.85;56.19
80410;BME280;69746;45.596;10.154;2023-11-18T05:51:25;100078.13;;;16.85;56.15
80410;BME280;69746;45.596;10.154;2023-11-18T05:53:52;100074.56;;;16.84;55.88
80410;BME280;69746;45.596;10.154;2023-11-18T05:56:18;100080.06;;;16.84;56.04
80410;BME280;69746;45.596;10.154;2023-11-18T05:58:45;100083.91;;;16.83;55.95
80410;BME280;69746;45.596;10.154;2023-11-18T06:01:15;100093.84;;;16.84;56.14
80410;BME280;69746;45.596;10.154;2023-11-18T06:03:43;100099.34;;;16.84;56.01
80410;BME280;69746;45.596;10.154;2023-11-18T06:06:10;100088.59;;;16.83;56.05
80410;BME280;69746;45.596;10.154;2023-11-18T06:08:37;100085.00;;;16.82;56.16
80410;BME280;69746;45.596;10.154;2023-11-18T06:11:13;100093.00;;;16.84;55.93
80410;BME280;69746;45.596;10.154;2023-11-18T06:13:43;100094.09;;;16.83;55.89
80410;BME280;69746;45.596;10.154;2023-11-18T06:16:22;100090.25;;;16.84;56.12
80410;BME280;69746;45.596;10.154;2023-11-18T06:18:52;100086.66;;;16.83;55.83
80410;BME280;69746;45.596;10.154;2023-11-18T06:21:26;100084.75;;;16.84;55.89
80410;BME280;69746;45.596;10.154;2023-11-18T06:23:56;100080.34;;;16.83;56.12
80410;BME280;69746;45.596;10.154;2023-11-18T06:26:23;100076.75;;;16.82;56.10
80410;BME280;69746;45.596;10.154;2023-11-18T06:28:53;100077.84;;;16.81;55.93
80410;BME280;69746;45.596;10.154;2023-11-18T06:31:20;100085.00;;;16.82;55.90
80410;BME280;69746;45.596;10.154;2023-11-18T06:33:47;100081.44;;;16.82;55.96
80410;BME280;69746;45.596;10.154;2023-11-18T06:38:41;100083.09;;;16.83;55.94
80410;BME280;69746;45.596;10.154;2023-11-18T06:41:07;100088.59;;;16.83;56.04
80410;BME280;69746;45.596;10.154;2023-11-18T06:43:40;100078.69;;;16.82;56.13
80410;BME280;69746;45.596;10.154;2023-11-18T06:46:27;100080.59;;;16.81;56.16
80410;BME280;69746;45.596;10.154;2023-11-18T06:48:59;100071.50;;;16.80;56.27
80410;BME280;69746;45.596;10.154;2023-11-18T06:51:30;100072.34;;;16.81;56.05
80410;BME280;69746;45.596;10.154;2023-11-18T06:53:58;100083.34;;;16.81;56.00
80410;BME280;69746;45.596;10.154;2023-11-18T06:56:25;100090.78;;;16.80;55.88
80410;BME280;69746;45.596;10.154;2023-11-18T06:58:51;100091.63;;;16.81;56.05
80410;BME280;69746;45.596;10.154;2023-11-18T07:01:17;100089.69;;;16.82;56.03
80410;BME280;69746;45.596;10.154;2023-11-18T07:03:44;100093.56;;;16.80;55.87
80410;BME280;69746;45.596;10.154;2023-11-18T07:06:11;100099.63;;;16.83;55.91
80410;BME280;69746;45.596;10.154;2023-11-18T07:08:40;100107.31;;;16.80;55.91
80410;BME280;69746;45.596;10.154;2023-11-18T07:11:06;100109.81;;;16.82;56.08
80410;BME280;69746;45.596;10.154;2023-11-18T07:13:32;100112.56;;;16.82;56.06
80410;BME280;69746;45.596;10.154;2023-11-18T07:16:01;100118.34;;;16.80;55.88
80410;BME280;69746;45.596;10.154;2023-11-18T07:18:28;100126.59;;;16.80;56.16
80410;BME280;69746;45.596;10.154;2023-11-18T07:20:59;100142.31;;;16.80;56.14
80410;BME280;69746;45.596;10.154;2023-11-18T07:23:27;100147.56;;;16.82;56.24
80410;BME280;69746;45.596;10.154;2023-11-18T07:25:53;100151.97;;;16.88;56.02
80410;BME280;69746;45.596;10.154;2023-11-18T07:28:20;100156.94;;;16.91;56.06
80410;BME280;69746;45.596;10.154;2023-11-18T07:30:45;100161.69;;;16.95;56.30
80410;BME280;69746;45.596;10.154;2023-11-18T07:33:16;100163.59;;;16.95;56.91
80410;BME280;69746;45.596;10.154;2023-11-18T07:35:42;100168.56;;;16.98;56.49
80410;BME280;69746;45.596;10.154;2023-11-18T07:38:09;100166.09;;;16.96;56.91
80410;BME280;69746;45.596;10.154;2023-11-18T07:40:36;100171.88;;;16.95;56.80
80410;BME280;69746;45.596;10.154;2023-11-18T07:43:08;100164.94;;;16.92;56.94
80410;BME280;69746;45.596;10.154;2023-11-18T07:45:35;100166.88;;;16.92;56.92
80410;BME280;69746;45.596;10.154;2023-11-18T07:48:07;100166.88;;;16.92;56.92
80410;BME280;69746;45.596;10.154;2023-11-18T07:50:35;100153.38;;;16.90;57.02
80410;BME280;69746;45.596;10.154;2023-11-18T07:53:02;100170.72;;;16.91;56.90
80410;BME280;69746;45.596;10.154;2023-11-18T07:55:29;100182.84;;;16.90;56.64
80410;BME280;69746;45.596;10.154;2023-11-18T07:57:55;100172.09;;;16.88;56.72
80410;BME280;69746;45.596;10.154;2023-11-18T08:00:21;100172.09;;;16.88;56.64
80410;BME280;69746;45.596;10.154;2023-11-18T08:02:49;100170.44;;;16.87;57.10
80410;BME280;69746;45.596;10.154;2023-11-18T08:05:15;100170.72;;;16.86;57.03
80410;BME280;69746;45.596;10.154;2023-11-18T08:07:41;100167.94;;;16.86;56.75
80410;BME280;69746;45.596;10.154;2023-11-18T08:10:09;100164.38;;;16.85;56.64
80410;BME280;69746;45.596;10.154;2023-11-18T08:12:41;100161.63;;;16.85;56.80
80410;BME280;69746;45.596;10.154;2023-11-18T08:15:09;100164.38;;;16.85;56.57
80410;BME280;69746;45.596;10.154;2023-11-18T08:17:36;100173.72;;;16.84;56.91
80410;BME280;69746;45.596;10.154;2023-11-18T08:20:03;100168.22;;;16.84;56.55
80410;BME280;69746;45.596;10.154;2023-11-18T08:22:42;100175.66;;;16.84;56.53
80410;BME280;69746;45.596;10.154;2023-11-18T08:25:13;100171.81;;;16.85;56.53
80410;BME280;69746;45.596;10.154;2023-11-18T08:27:40;100170.16;;;16.84;56.51
80410;BME280;69746;45.596;10.154;2023-11-18T08:30:07;100174.84;;;16.83;56.49
80410;BME280;69746;45.596;10.154;2023-11-18T08:32:37;100175.94;;;16.82;56.71
80410;BME280;69746;45.596;10.154;2023-11-18T08:35:07;100166.56;;;16.83;56.40
80410;BME280;69746;45.596;10.154;2023-11-18T08:37:34;100172.34;;;16.82;56.59
80410;BME280;69746;45.596;10.154;2023-11-18T08:40:04;100170.97;;;16.84;56.97
80410;BME280;69746;45.596;10.154;2023-11-18T08:42:46;100170.72;;;16.86;57.22
80410;BME280;69746;45.596;10.154;2023-11-18T08:45:19;100168.78;;;16.86;56.82
80410;BME280;69746;45.596;10.154;2023-11-18T08:47:53;100174.28;;;16.86;56.93
80410;BME280;69746;45.596;10.154;2023-11-18T08:50:21;100180.34;;;16.88;56.89
80410;BME280;69746;45.596;10.154;2023-11-18T08:52:51;100175.69;;;16.89;57.16
80410;BME280;69746;45.596;10.154;2023-11-18T08:55:27;100176.22;;;16.91;57.03
80410;BME280;69746;45.596;10.154;2023-11-18T08:58:08;100180.13;;;16.95;57.64
80410;BME280;69746;45.596;10.154;2023-11-18T09:00:56;100181.25;;;16.99;56.99
80410;BME280;69746;45.596;10.154;2023-11-18T09:03:31;100168.31;;;16.99;57.51
80410;BME280;69746;45.596;10.154;2023-11-18T09:06:03;100172.16;;;16.98;57.94
80410;BME280;69746;45.596;10.154;2023-11-18T09:11:11;100165.53;;;16.94;57.69
80410;BME280;69746;45.596;10.154;2023-11-18T09:13:42;100158.91;;;16.95;57.81
80410;BME280;69746;45.596;10.154;2023-11-18T09:16:10;100166.38;;;16.95;57.75
80410;BME280;69746;45.596;10.154;2023-11-18T09:18:39;100161.34;;;16.92;57.56
80410;BME280;69746;45.596;10.154;2023-11-18T09:21:06;100167.47;;;16.94;57.71
80410;BME280;69746;45.596;10.154;2023-11-18T09:23:36;100170.44;;;16.92;57.74
80410;BME280;69746;45.596;10.154;2023-11-18T09:26:02;100174.91;;;16.93;57.18
80410;BME280;69746;45.596;10.154;2023-11-18T09:28:34;100179.59;;;16.93;57.31
80410;BME280;69746;45.596;10.154;2023-11-18T09:31:01;100186.16;;;16.92;57.29
80410;BME280;69746;45.596;10.154;2023-11-18T09:33:30;100183.41;;;16.92;57.30
80410;BME280;69746;45.596;10.154;2023-11-18T09:36:04;100187.84;;;16.93;57.22
80410;BME280;69746;45.596;10.154;2023-11-18T09:38:34;100198.88;;;16.93;57.19
80410;BME280;69746;45.596;10.154;2023-11-18T09:41:05;100202.69;;;16.92;57.25
80410;BME280;69746;45.596;10.154;2023-11-18T09:43:42;100204.38;;;16.93;57.41
80410;BME280;69746;45.596;10.154;2023-11-18T09:46:13;100205.44;;;16.92;57.15
80410;BME280;69746;45.596;10.154;2023-11-18T09:51:42;100195.53;;;16.91;57.14
80410;BME280;69746;45.596;10.154;2023-11-18T09:54:27;100208.19;;;16.92;57.31
80410;BME280;69746;45.596;10.154;2023-11-18T09:57:11;100193.59;;;16.91;57.22
80410;BME280;69746;45.596;10.154;2023-11-18T10:00:00;100184.50;;;16.91;57.24
80410;BME280;69746;45.596;10.154;2023-11-18T10:02:39;100181.47;;;16.87;57.37
80410;BME280;69746;45.596;10.154;2023-11-18T10:05:09;100179.00;;;16.91;56.92
80410;BME280;69746;45.596;10.154;2023-11-18T10:07:41;100169.91;;;16.90;57.08
80410;BME280;69746;45.596;10.154;2023-11-18T10:10:08;100176.50;;;16.89;57.04
80410;BME280;69746;45.596;10.154;2023-11-18T10:12:47;100171.81;;;16.90;57.02
80410;BME280;69746;45.596;10.154;2023-11-18T10:15:23;100174.56;;;16.90;57.36
80410;BME280;69746;45.596;10.154;2023-11-18T10:17:53;100169.91;;;16.90;57.11
80410;BME280;69746;45.596;10.154;2023-11-18T10:20:49;100160.81;;;16.90;56.93
80410;BME280;69746;45.596;10.154;2023-11-18T10:23:23;100159.97;;;16.89;57.03
80410;BME280;69746;45.596;10.154;2023-11-18T10:25:50;100154.47;;;16.89;57.30
80410;BME280;69746;45.596;10.154;2023-11-18T10:28:24;100163.28;;;16.91;57.16
80410;BME280;69746;45.596;10.154;2023-11-18T10:30:56;100153.09;;;16.92;57.56
80410;BME280;69746;45.596;10.154;2023-11-18T10:33:26;100156.44;;;16.94;57.31
80410;BME280;69746;45.596;10.154;2023-11-18T10:35:57;100163.03;;;16.93;57.18
80410;BME280;69746;45.596;10.154;2023-11-18T10:38:23;100161.94;;;16.94;57.36
80410;BME280;69746;45.596;10.154;2023-11-18T10:40:54;100161.94;;;16.94;57.51
80410;BME280;69746;45.596;10.154;2023-11-18T10:43:24;100147.84;;;16.90;57.39
80410;BME280;69746;45.596;10.154;2023-11-18T10:46:05;100153.69;;;16.94;57.29
80410;BME280;69746;45.596;10.154;2023-11-18T10:48:45;100159.44;;;16.92;57.46
80410;BME280;69746;45.596;10.154;2023-11-18T10:51:15;100146.75;;;16.91;57.12
80410;BME280;69746;45.596;10.154;2023-11-18T10:53:43;100155.84;;;16.92;57.46
80410;BME280;69746;45.596;10.154;2023-11-18T10:56:26;100169.63;;;16.92;57.25
80410;BME280;69746;45.596;10.154;2023-11-18T10:58:58;100160.28;;;16.93;57.25
80410;BME280;69746;45.596;10.154;2023-11-18T11:01:35;100174.06;;;16.93;57.15
80410;BME280;69746;45.596;10.154;2023-11-18T11:04:11;100166.63;;;16.93;57.01
80410;BME280;69746;45.596;10.154;2023-11-18T11:06:41;100158.59;;;16.92;57.19
80410;BME280;69746;45.596;10.154;2023-11-18T11:09:09;100154.78;;;16.93;57.37
80410;BME280;69746;45.596;10.154;2023-11-18T11:11:47;100150.59;;;16.90;57.14
80410;BME280;69746;45.596;10.154;2023-11-18T11:14:15;100155.84;;;16.92;57.21
80410;BME280;69746;45.596;10.154;2023-11-18T11:16:54;100147.34;;;16.93;57.33
80410;BME280;69746;45.596;10.154;2023-11-18T11:19:25;100156.69;;;16.92;57.48
80410;BME280;69746;45.596;10.154;2023-11-18T11:22:05;100164.13;;;16.92;57.25
80410;BME280;69746;45.596;10.154;2023-11-18T11:27:21;100164.13;;;16.92;57.24
80410;BME280;69746;45.596;10.154;2023-11-18T11:30:06;100159.69;;;16.91;56.95
80410;BME280;69746;45.596;10.154;2023-11-18T11:32:51;100165.81;;;16.93;57.04
80410;BME280;69746;45.596;10.154;2023-11-18T11:35:23;100163.28;;;16.91;57.06
80410;BME280;69746;45.596;10.154;2023-11-18T11:37:52;100167.97;;;16.91;57.07
80410;BME280;69746;45.596;10.154;2023-11-18T11:40:21;100158.59;;;16.92;57.15
80410;BME280;69746;45.596;10.154;2023-11-18T11:42:50;100163.03;;;16.93;57.15
80410;BME280;69746;45.596;10.154;2023-11-18T11:45:22;100162.19;;;16.92;57.36
80410;BME280;69746;45.596;10.154;2023-11-18T11:47:55;100158.59;;;16.92;56.98
80410;BME280;69746;45.596;10.154;2023-11-18T11:53:23;100155.03;;;16.91;57.10
80410;BME280;69746;45.596;10.154;2023-11-18T11:55:53;100159.44;;;16.92;56.98
80410;BME280;69746;45.596;10.154;2023-11-18T11:58:29;100159.69;;;16.91;56.93
80410;BME280;69746;45.596;10.154;2023-11-18T12:01:14;100164.94;;;16.92;56.98
80410;BME280;69746;45.596;10.154;2023-11-18T12:03:43;100158.59;;;16.92;57.08
80410;BME280;69746;45.596;10.154;2023-11-18T12:06:18;100157.53;;;16.93;57.05
80410;BME280;69746;45.596;10.154;2023-11-18T12:08:53;100152.03;;;16.93;57.37
80410;BME280;69746;45.596;10.154;2023-11-18T12:11:19;100139.31;;;16.92;57.08
80410;BME280;69746;45.596;10.154;2023-11-18T12:16:58;100128.88;;;16.94;56.97
80410;BME280;69746;45.596;10.154;2023-11-18T12:19:33;100123.59;;;16.92;56.98
80410;BME280;69746;45.596;10.154;2023-11-18T12:22:15;100123.59;;;16.92;57.13
80410;BME280;69746;45.596;10.154;2023-11-18T12:41:38;100114.50;;;16.92;57.22
80410;BME280;69746;45.596;10.154;2023-11-18T12:46:54;100107.94;;;16.93;57.26
80410;BME280;69746;45.596;10.154;2023-11-18T12:49:23;100117.28;;;16.92;57.47
80410;BME280;69746;45.596;10.154;2023-11-18T12:51:53;100117.03;;;16.93;57.32
80410;BME280;69746;45.596;10.154;2023-11-18T12:54:22;100109.00;;;16.92;56.99
80410;BME280;69746;45.596;10.154;2023-11-18T12:56:51;100112.34;;;16.94;57.24
80410;BME280;69746;45.596;10.154;2023-11-18T12:59:22;100110.41;;;16.94;57.12
80410;BME280;69746;45.596;10.154;2023-11-18T13:01:51;100110.69;;;16.93;57.11
80410;BME280;69746;45.596;10.154;2023-11-18T13:04:22;100110.41;;;16.94;57.25
80410;BME280;69746;45.596;10.154;2023-11-18T13:06:50;100113.19;;;16.94;57.07
80410;BME280;69746;45.596;10.154;2023-11-18T13:09:23;100116.75;;;16.95;57.33
80410;BME280;69746;45.596;10.154;2023-11-18T13:11:59;100103.25;;;16.93;57.12
80410;BME280;69746;45.596;10.154;2023-11-18T13:14:36;100113.19;;;16.94;57.02
80410;BME280;69746;45.596;10.154;2023-11-18T13:17:09;100104.09;;;16.94;57.04
80410;BME280;69746;45.596;10.154;2023-11-18T13:19:37;100115.94;;;16.94;57.04
80410;BME280;69746;45.596;10.154;2023-11-18T13:22:04;100115.94;;;16.94;57.06
80410;BME280;69746;45.596;10.154;2023-11-18T13:24:38;100120.34;;;16.95;56.94
80410;BME280;69746;45.596;10.154;2023-11-18T13:27:10;100119.25;;;16.96;57.29
80410;BME280;69746;45.596;10.154;2023-11-18T13:29:38;100116.50;;;16.96;57.07
80410;BME280;69746;45.596;10.154;2023-11-18T13:32:05;100122.00;;;16.96;56.79
80410;BME280;69746;45.596;10.154;2023-11-18T13:34:34;100116.50;;;16.96;57.18